sensor_id;sensor_type;location;lat;lon;timestamp;P1;durP1;ratioP1;P2;durP2;ratioP2
79460;SDS011;68929;42.666;23.324;2023-06-14T00:01:00;6.55;;;5.95;;
79460;SDS011;68929;42.666;23.324;2023-06-14T00:03:27;8.82;;;7.72;;
79460;SDS011;68929;42.666;23.324;2023-06-14T00:05:53;6.93;;;6.32;;
79460;SDS011;68929;42.666;23.324;2023-06-14T00:08:19;7.53;;;6.82;;
79460;SDS011;68929;42.666;23.324;2023-06-14T00:10:46;7.18;;;6.43;;
79460;SDS011;68929;42.666;23.324;2023-06-14T00:13:12;5.85;;;5.35;;
79460;SDS011;68929;42.666;23.324;2023-06-14T00:15:37;6.60;;;6.00;;
79460;SDS011;68929;42.666;23.324;2023-06-14T00:18:03;8.52;;;6.22;;
79460;SDS011;68929;42.666;23.324;2023-06-14T00:20:29;6.10;;;5.60;;
79460;SDS011;68929;42.666;23.324;2023-06-14T00:22:57;5.70;;;5.20;;
79460;SDS011;68929;42.666;23.324;2023-06-14T00:25:23;6.80;;;5.68;;
79460;SDS011;68929;42.666;23.324;2023-06-14T00:27:52;6.93;;;6.20;;
79460;SDS011;68929;42.666;23.324;2023-06-14T00:30:19;6.43;;;5.82;;
79460;SDS011;68929;42.666;23.324;2023-06-14T00:32:45;6.68;;;6.07;;
79460;SDS011;68929;42.666;23.324;2023-06-14T00:35:11;6.55;;;5.95;;
79460;SDS011;68929;42.666;23.324;2023-06-14T00:37:37;6.78;;;6.18;;
79460;SDS011;68929;42.666;23.324;2023-06-14T00:40:03;6.57;;;5.78;;
79460;SDS011;68929;42.666;23.324;2023-06-14T00:42:31;7.40;;;6.45;;
79460;SDS011;68929;42.666;23.324;2023-06-14T00:44:56;6.82;;;6.25;;
79460;SDS011;68929;42.666;23.324;2023-06-14T00:47:22;6.85;;;6.10;;
79460;SDS011;68929;42.666;23.324;2023-06-14T00:49:48;8.65;;;6.07;;
79460;SDS011;68929;42.666;23.324;2023-06-14T00:52:15;6.68;;;5.93;;
79460;SDS011;68929;42.666;23.324;2023-06-14T00:54:41;5.97;;;5.40;;
79460;SDS011;68929;42.666;23.324;2023-06-14T00:57:07;6.93;;;6.30;;
79460;SDS011;68929;42.666;23.324;2023-06-14T00:59:33;7.47;;;5.78;;
79460;SDS011;68929;42.666;23.324;2023-06-14T01:02:03;6.73;;;6.13;;
79460;SDS011;68929;42.666;23.324;2023-06-14T01:04:29;7.07;;;6.13;;
79460;SDS011;68929;42.666;23.324;2023-06-14T01:13:19;7.43;;;5.93;;
79460;SDS011;68929;42.666;23.324;2023-06-14T01:15:25;6.30;;;5.80;;
79460;SDS011;68929;42.666;23.324;2023-06-14T01:17:53;6.65;;;6.05;;
79460;SDS011;68929;42.666;23.324;2023-06-14T01:20:21;5.93;;;5.32;;
79460;SDS011;68929;42.666;23.324;2023-06-14T01:22:51;7.72;;;5.40;;
79460;SDS011;68929;42.666;23.324;2023-06-14T01:25:18;6.82;;;5.63;;
79460;SDS011;68929;42.666;23.324;2023-06-14T01:27:51;6.68;;;6.03;;
79460;SDS011;68929;42.666;23.324;2023-06-14T01:30:20;6.78;;;5.60;;
79460;SDS011;68929;42.666;23.324;2023-06-14T01:32:47;5.55;;;4.85;;
79460;SDS011;68929;42.666;23.324;2023-06-14T01:35:13;7.90;;;5.40;;
79460;SDS011;68929;42.666;23.324;2023-06-14T01:37:39;5.72;;;5.07;;
79460;SDS011;68929;42.666;23.324;2023-06-14T01:40:06;5.43;;;4.95;;
79460;SDS011;68929;42.666;23.324;2023-06-14T01:42:33;6.10;;;5.60;;
79460;SDS011;68929;42.666;23.324;2023-06-14T01:45:02;6.05;;;5.22;;
79460;SDS011;68929;42.666;23.324;2023-06-14T01:47:29;5.72;;;5.22;;
79460;SDS011;68929;42.666;23.324;2023-06-14T01:49:55;5.85;;;5.35;;
79460;SDS011;68929;42.666;23.324;2023-06-14T01:52:20;5.47;;;4.97;;
79460;SDS011;68929;42.666;23.324;2023-06-14T01:54:47;5.93;;;5.30;;
79460;SDS011;68929;42.666;23.324;2023-06-14T01:57:12;4.90;;;4.50;;
79460;SDS011;68929;42.666;23.324;2023-06-14T01:59:38;6.00;;;5.40;;
79460;SDS011;68929;42.666;23.324;2023-06-14T02:02:04;5.10;;;4.65;;
79460;SDS011;68929;42.666;23.324;2023-06-14T02:04:30;5.25;;;4.85;;
79460;SDS011;68929;42.666;23.324;2023-06-14T02:06:55;5.55;;;5.05;;
79460;SDS011;68929;42.666;23.324;2023-06-14T02:09:20;5.07;;;4.68;;
79460;SDS011;68929;42.666;23.324;2023-06-14T02:11:46;6.75;;;6.13;;
79460;SDS011;68929;42.666;23.324;2023-06-14T02:14:11;7.35;;;6.57;;
79460;SDS011;68929;42.666;23.324;2023-06-14T02:16:37;7.43;;;6.72;;
79460;SDS011;68929;42.666;23.324;2023-06-14T02:19:03;9.20;;;6.78;;
79460;SDS011;68929;42.666;23.324;2023-06-14T02:21:29;7.28;;;6.68;;
79460;SDS011;68929;42.666;23.324;2023-06-14T02:23:54;6.97;;;5.78;;
79460;SDS011;68929;42.666;23.324;2023-06-14T02:26:20;8.82;;;7.85;;
79460;SDS011;68929;42.666;23.324;2023-06-14T02:28:47;6.82;;;6.22;;
79460;SDS011;68929;42.666;23.324;2023-06-14T02:31:13;6.78;;;5.90;;
79460;SDS011;68929;42.666;23.324;2023-06-14T02:33:38;6.75;;;6.15;;
79460;SDS011;68929;42.666;23.324;2023-06-14T02:36:04;7.28;;;6.60;;
79460;SDS011;68929;42.666;23.324;2023-06-14T02:38:30;7.80;;;7.00;;
79460;SDS011;68929;42.666;23.324;2023-06-14T02:40:55;7.90;;;7.20;;
79460;SDS011;68929;42.666;23.324;2023-06-14T02:43:21;8.50;;;7.70;;
79460;SDS011;68929;42.666;23.324;2023-06-14T02:45:46;7.50;;;6.82;;
79460;SDS011;68929;42.666;23.324;2023-06-14T02:48:11;8.98;;;8.07;;
79460;SDS011;68929;42.666;23.324;2023-06-14T02:50:37;8.13;;;7.30;;
79460;SDS011;68929;42.666;23.324;2023-06-14T02:53:02;8.50;;;7.65;;
79460;SDS011;68929;42.666;23.324;2023-06-14T02:55:28;6.82;;;6.13;;
79460;SDS011;68929;42.666;23.324;2023-06-14T02:57:54;7.35;;;5.30;;
79460;SDS011;68929;42.666;23.324;2023-06-14T03:00:19;5.68;;;5.15;;
79460;SDS011;68929;42.666;23.324;2023-06-14T03:02:45;7.00;;;6.30;;
79460;SDS011;68929;42.666;23.324;2023-06-14T03:05:10;6.13;;;5.55;;
79460;SDS011;68929;42.666;23.324;2023-06-14T03:07:36;4.97;;;4.55;;
79460;SDS011;68929;42.666;23.324;2023-06-14T03:10:09;6.90;;;6.30;;
79460;SDS011;68929;42.666;23.324;2023-06-14T03:12:35;7.38;;;6.65;;
79460;SDS011;68929;42.666;23.324;2023-06-14T03:15:01;8.50;;;6.85;;
79460;SDS011;68929;42.666;23.324;2023-06-14T03:17:27;8.38;;;7.03;;
79460;SDS011;68929;42.666;23.324;2023-06-14T03:19:55;11.45;;;8.25;;
79460;SDS011;68929;42.666;23.324;2023-06-14T03:22:20;7.55;;;6.35;;
79460;SDS011;68929;42.666;23.324;2023-06-14T03:24:47;9.15;;;7.70;;
79460;SDS011;68929;42.666;23.324;2023-06-14T03:27:13;7.32;;;6.57;;
79460;SDS011;68929;42.666;23.324;2023-06-14T03:29:39;7.18;;;6.20;;
79460;SDS011;68929;42.666;23.324;2023-06-14T03:32:05;8.73;;;7.60;;
79460;SDS011;68929;42.666;23.324;2023-06-14T03:34:30;10.02;;;8.27;;
79460;SDS011;68929;42.666;23.324;2023-06-14T03:36:56;9.07;;;8.20;;
79460;SDS011;68929;42.666;23.324;2023-06-14T03:39:21;9.90;;;8.90;;
79460;SDS011;68929;42.666;23.324;2023-06-14T03:41:47;10.07;;;9.05;;
79460;SDS011;68929;42.666;23.324;2023-06-14T03:44:14;10.07;;;7.18;;
79460;SDS011;68929;42.666;23.324;2023-06-14T03:46:41;11.65;;;8.55;;
79460;SDS011;68929;42.666;23.324;2023-06-14T03:49:06;8.32;;;7.53;;
79460;SDS011;68929;42.666;23.324;2023-06-14T03:51:32;9.23;;;7.57;;
79460;SDS011;68929;42.666;23.324;2023-06-14T03:54:00;8.32;;;6.97;;
79460;SDS011;68929;42.666;23.324;2023-06-14T03:56:25;10.63;;;9.60;;
79460;SDS011;68929;42.666;23.324;2023-06-14T03:58:52;8.82;;;8.02;;
79460;SDS011;68929;42.666;23.324;2023-06-14T04:01:17;9.30;;;8.32;;
79460;SDS011;68929;42.666;23.324;2023-06-14T04:03:43;10.98;;;8.50;;
79460;SDS011;68929;42.666;23.324;2023-06-14T04:06:08;9.05;;;8.18;;
79460;SDS011;68929;42.666;23.324;2023-06-14T04:08:34;10.20;;;8.98;;
79460;SDS011;68929;42.666;23.324;2023-06-14T04:11:00;14.38;;;8.50;;
79460;SDS011;68929;42.666;23.324;2023-06-14T04:13:25;12.75;;;10.25;;
79460;SDS011;68929;42.666;23.324;2023-06-14T04:15:57;11.60;;;10.43;;
79460;SDS011;68929;42.666;23.324;2023-06-14T04:18:27;11.02;;;9.77;;
79460;SDS011;68929;42.666;23.324;2023-06-14T04:20:52;12.25;;;11.05;;
79460;SDS011;68929;42.666;23.324;2023-06-14T04:23:18;14.63;;;10.77;;
79460;SDS011;68929;42.666;23.324;2023-06-14T04:25:44;14.40;;;11.45;;
79460;SDS011;68929;42.666;23.324;2023-06-14T04:28:12;17.25;;;12.00;;
79460;SDS011;68929;42.666;23.324;2023-06-14T04:30:40;14.45;;;10.85;;
79460;SDS011;68929;42.666;23.324;2023-06-14T04:33:06;15.48;;;11.30;;
79460;SDS011;68929;42.666;23.324;2023-06-14T04:35:32;13.13;;;10.73;;
79460;SDS011;68929;42.666;23.324;2023-06-14T04:37:58;12.32;;;11.13;;
79460;SDS011;68929;42.666;23.324;2023-06-14T04:40:24;11.02;;;9.95;;
79460;SDS011;68929;42.666;23.324;2023-06-14T04:42:49;11.70;;;10.27;;
79460;SDS011;68929;42.666;23.324;2023-06-14T04:45:15;13.85;;;10.15;;
79460;SDS011;68929;42.666;23.324;2023-06-14T04:47:42;10.23;;;9.20;;
79460;SDS011;68929;42.666;23.324;2023-06-14T04:50:09;12.68;;;10.05;;
79460;SDS011;68929;42.666;23.324;2023-06-14T04:52:35;11.10;;;10.00;;
79460;SDS011;68929;42.666;23.324;2023-06-14T04:55:02;14.25;;;10.43;;
79460;SDS011;68929;42.666;23.324;2023-06-14T04:57:28;10.52;;;9.27;;
79460;SDS011;68929;42.666;23.324;2023-06-14T04:59:53;10.77;;;9.73;;
79460;SDS011;68929;42.666;23.324;2023-06-14T05:02:20;12.20;;;9.88;;
79460;SDS011;68929;42.666;23.324;2023-06-14T05:04:50;12.73;;;9.73;;
79460;SDS011;68929;42.666;23.324;2023-06-14T05:07:15;12.82;;;10.43;;
79460;SDS011;68929;42.666;23.324;2023-06-14T05:09:41;12.10;;;10.82;;
79460;SDS011;68929;42.666;23.324;2023-06-14T05:12:06;12.57;;;10.40;;
79460;SDS011;68929;42.666;23.324;2023-06-14T05:14:33;15.13;;;10.57;;
79460;SDS011;68929;42.666;23.324;2023-06-14T05:17:03;11.95;;;10.75;;
79460;SDS011;68929;42.666;23.324;2023-06-14T05:19:29;13.80;;;10.68;;
79460;SDS011;68929;42.666;23.324;2023-06-14T05:21:54;13.30;;;11.45;;
79460;SDS011;68929;42.666;23.324;2023-06-14T05:24:19;10.77;;;9.07;;
79460;SDS011;68929;42.666;23.324;2023-06-14T05:26:49;10.80;;;9.80;;
79460;SDS011;68929;42.666;23.324;2023-06-14T05:29:15;11.55;;;10.45;;
79460;SDS011;68929;42.666;23.324;2023-06-14T05:31:40;8.13;;;7.40;;
79460;SDS011;68929;42.666;23.324;2023-06-14T05:34:11;12.23;;;11.02;;
79460;SDS011;68929;42.666;23.324;2023-06-14T05:36:40;13.68;;;11.30;;
79460;SDS011;68929;42.666;23.324;2023-06-14T05:39:05;10.73;;;9.63;;
79460;SDS011;68929;42.666;23.324;2023-06-14T05:41:35;10.05;;;8.80;;
79460;SDS011;68929;42.666;23.324;2023-06-14T05:44:00;11.27;;;10.05;;
79460;SDS011;68929;42.666;23.324;2023-06-14T05:46:31;11.75;;;10.60;;
79460;SDS011;68929;42.666;23.324;2023-06-14T05:49:00;12.57;;;11.38;;
79460;SDS011;68929;42.666;23.324;2023-06-14T05:51:28;11.05;;;9.10;;
79460;SDS011;68929;42.666;23.324;2023-06-14T05:54:02;10.18;;;9.20;;
79460;SDS011;68929;42.666;23.324;2023-06-14T05:56:28;13.65;;;11.30;;
79460;SDS011;68929;42.666;23.324;2023-06-14T05:58:53;12.73;;;11.43;;
79460;SDS011;68929;42.666;23.324;2023-06-14T06:01:19;15.32;;;13.73;;
79460;SDS011;68929;42.666;23.324;2023-06-14T06:03:50;14.95;;;13.40;;
79460;SDS011;68929;42.666;23.324;2023-06-14T06:06:22;12.85;;;11.48;;
79460;SDS011;68929;42.666;23.324;2023-06-14T06:08:47;17.33;;;14.73;;
79460;SDS011;68929;42.666;23.324;2023-06-14T06:11:15;18.95;;;15.95;;
79460;SDS011;68929;42.666;23.324;2023-06-14T06:13:44;16.00;;;14.05;;
79460;SDS011;68929;42.666;23.324;2023-06-14T06:16:10;16.92;;;15.23;;
79460;SDS011;68929;42.666;23.324;2023-06-14T06:18:35;17.25;;;15.38;;
79460;SDS011;68929;42.666;23.324;2023-06-14T06:21:01;13.73;;;12.35;;
79460;SDS011;68929;42.666;23.324;2023-06-14T06:23:28;15.00;;;12.77;;
79460;SDS011;68929;42.666;23.324;2023-06-14T06:25:53;14.07;;;12.52;;
79460;SDS011;68929;42.666;23.324;2023-06-14T06:28:21;14.60;;;12.80;;
79460;SDS011;68929;42.666;23.324;2023-06-14T06:30:49;19.38;;;15.18;;
79460;SDS011;68929;42.666;23.324;2023-06-14T06:33:18;9.93;;;8.85;;
79460;SDS011;68929;42.666;23.324;2023-06-14T06:35:50;18.00;;;14.13;;
79460;SDS011;68929;42.666;23.324;2023-06-14T06:38:20;14.77;;;13.20;;
79460;SDS011;68929;42.666;23.324;2023-06-14T06:40:46;16.40;;;14.73;;
79460;SDS011;68929;42.666;23.324;2023-06-14T06:43:11;17.88;;;13.52;;
79460;SDS011;68929;42.666;23.324;2023-06-14T06:45:41;14.88;;;12.20;;
79460;SDS011;68929;42.666;23.324;2023-06-14T06:48:06;18.65;;;15.40;;
79460;SDS011;68929;42.666;23.324;2023-06-14T06:50:32;14.98;;;13.48;;
79460;SDS011;68929;42.666;23.324;2023-06-14T06:52:58;17.92;;;15.68;;
79460;SDS011;68929;42.666;23.324;2023-06-14T06:55:23;13.68;;;12.27;;
79460;SDS011;68929;42.666;23.324;2023-06-14T06:57:48;16.23;;;14.10;;
79460;SDS011;68929;42.666;23.324;2023-06-14T07:00:15;14.65;;;11.15;;
79460;SDS011;68929;42.666;23.324;2023-06-14T07:02:46;14.50;;;13.07;;
79460;SDS011;68929;42.666;23.324;2023-06-14T07:05:12;11.45;;;10.35;;
79460;SDS011;68929;42.666;23.324;2023-06-14T07:07:43;18.10;;;13.57;;
79460;SDS011;68929;42.666;23.324;2023-06-14T07:10:08;12.68;;;10.95;;
79460;SDS011;68929;42.666;23.324;2023-06-14T07:12:33;13.02;;;11.68;;
79460;SDS011;68929;42.666;23.324;2023-06-14T07:15:04;14.03;;;12.67;;
79460;SDS011;68929;42.666;23.324;2023-06-14T07:17:30;11.65;;;10.45;;
79460;SDS011;68929;42.666;23.324;2023-06-14T07:19:56;12.73;;;11.02;;
79460;SDS011;68929;42.666;23.324;2023-06-14T07:22:23;14.13;;;12.40;;
79460;SDS011;68929;42.666;23.324;2023-06-14T07:24:49;21.35;;;14.90;;
79460;SDS011;68929;42.666;23.324;2023-06-14T07:27:18;12.02;;;10.80;;
79460;SDS011;68929;42.666;23.324;2023-06-14T07:29:47;12.98;;;11.68;;
79460;SDS011;68929;42.666;23.324;2023-06-14T07:32:12;14.05;;;12.02;;
79460;SDS011;68929;42.666;23.324;2023-06-14T07:34:39;12.10;;;10.95;;
79460;SDS011;68929;42.666;23.324;2023-06-14T07:37:10;15.80;;;14.20;;
79460;SDS011;68929;42.666;23.324;2023-06-14T07:39:38;15.02;;;13.45;;
79460;SDS011;68929;42.666;23.324;2023-06-14T07:42:06;18.13;;;14.90;;
79460;SDS011;68929;42.666;23.324;2023-06-14T07:44:32;13.13;;;11.82;;
79460;SDS011;68929;42.666;23.324;2023-06-14T07:47:01;15.48;;;12.90;;
79460;SDS011;68929;42.666;23.324;2023-06-14T07:49:40;13.77;;;10.80;;
79460;SDS011;68929;42.666;23.324;2023-06-14T07:52:06;12.23;;;10.57;;
79460;SDS011;68929;42.666;23.324;2023-06-14T07:54:39;12.23;;;10.82;;
79460;SDS011;68929;42.666;23.324;2023-06-14T07:57:06;13.00;;;11.70;;
79460;SDS011;68929;42.666;23.324;2023-06-14T07:59:41;13.30;;;11.90;;
79460;SDS011;68929;42.666;23.324;2023-06-14T08:02:11;14.20;;;12.85;;
79460;SDS011;68929;42.666;23.324;2023-06-14T08:04:36;16.05;;;11.15;;
79460;SDS011;68929;42.666;23.324;2023-06-14T08:07:02;12.73;;;10.07;;
79460;SDS011;68929;42.666;23.324;2023-06-14T08:09:32;10.80;;;9.70;;
79460;SDS011;68929;42.666;23.324;2023-06-14T08:12:15;11.88;;;10.73;;
79460;SDS011;68929;42.666;23.324;2023-06-14T08:14:41;10.38;;;9.32;;
79460;SDS011;68929;42.666;23.324;2023-06-14T08:17:09;8.35;;;7.65;;
79460;SDS011;68929;42.666;23.324;2023-06-14T08:19:34;12.43;;;10.27;;
79460;SDS011;68929;42.666;23.324;2023-06-14T08:22:01;11.98;;;10.70;;
79460;SDS011;68929;42.666;23.324;2023-06-14T08:24:32;12.75;;;11.55;;
79460;SDS011;68929;42.666;23.324;2023-06-14T08:26:58;8.93;;;8.02;;
79460;SDS011;68929;42.666;23.324;2023-06-14T08:29:30;14.38;;;10.95;;
79460;SDS011;68929;42.666;23.324;2023-06-14T08:31:56;13.10;;;11.85;;
79460;SDS011;68929;42.666;23.324;2023-06-14T08:34:21;13.38;;;12.00;;
79460;SDS011;68929;42.666;23.324;2023-06-14T08:36:52;12.90;;;10.63;;
79460;SDS011;68929;42.666;23.324;2023-06-14T08:39:23;15.23;;;13.38;;
79460;SDS011;68929;42.666;23.324;2023-06-14T08:41:48;10.43;;;9.43;;
79460;SDS011;68929;42.666;23.324;2023-06-14T08:44:16;13.07;;;11.80;;
79460;SDS011;68929;42.666;23.324;2023-06-14T08:46:42;9.40;;;8.60;;
79460;SDS011;68929;42.666;23.324;2023-06-14T08:49:08;11.35;;;9.85;;
79460;SDS011;68929;42.666;23.324;2023-06-14T08:51:42;13.52;;;12.18;;
79460;SDS011;68929;42.666;23.324;2023-06-14T08:54:09;8.63;;;7.93;;
79460;SDS011;68929;42.666;23.324;2023-06-14T08:56:37;13.38;;;10.75;;
79460;SDS011;68929;42.666;23.324;2023-06-14T08:59:08;10.68;;;9.57;;
79460;SDS011;68929;42.666;23.324;2023-06-14T09:01:37;10.07;;;9.07;;
79460;SDS011;68929;42.666;23.324;2023-06-14T09:04:03;12.27;;;11.02;;
79460;SDS011;68929;42.666;23.324;2023-06-14T09:06:45;13.07;;;11.73;;
79460;SDS011;68929;42.666;23.324;2023-06-14T09:09:11;12.60;;;9.85;;
79460;SDS011;68929;42.666;23.324;2023-06-14T09:11:42;14.02;;;12.50;;
79460;SDS011;68929;42.666;23.324;2023-06-14T09:16:33;11.87;;;10.73;;
79460;SDS011;68929;42.666;23.324;2023-06-14T09:18:59;11.80;;;10.48;;
79460;SDS011;68929;42.666;23.324;2023-06-14T09:21:24;10.27;;;9.18;;
79460;SDS011;68929;42.666;23.324;2023-06-14T09:23:55;10.98;;;9.98;;
79460;SDS011;68929;42.666;23.324;2023-06-14T09:26:20;14.15;;;11.93;;
79460;SDS011;68929;42.666;23.324;2023-06-14T09:28:47;10.20;;;9.13;;
79460;SDS011;68929;42.666;23.324;2023-06-14T09:31:14;8.43;;;7.72;;
79460;SDS011;68929;42.666;23.324;2023-06-14T09:33:42;11.70;;;10.10;;
79460;SDS011;68929;42.666;23.324;2023-06-14T09:36:21;11.20;;;9.82;;
79460;SDS011;68929;42.666;23.324;2023-06-14T09:38:55;10.90;;;9.90;;
79460;SDS011;68929;42.666;23.324;2023-06-14T09:41:33;9.85;;;8.85;;
79460;SDS011;68929;42.666;23.324;2023-06-14T09:44:09;10.63;;;9.73;;
79460;SDS011;68929;42.666;23.324;2023-06-14T09:49:02;12.07;;;10.98;;
79460;SDS011;68929;42.666;23.324;2023-06-14T09:51:32;15.25;;;13.45;;
79460;SDS011;68929;42.666;23.324;2023-06-14T09:54:01;13.48;;;12.18;;
79460;SDS011;68929;42.666;23.324;2023-06-14T09:56:31;10.75;;;9.75;;
79460;SDS011;68929;42.666;23.324;2023-06-14T09:58:59;10.10;;;9.25;;
79460;SDS011;68929;42.666;23.324;2023-06-14T10:01:27;10.55;;;9.38;;
79460;SDS011;68929;42.666;23.324;2023-06-14T10:04:06;8.20;;;7.43;;
79460;SDS011;68929;42.666;23.324;2023-06-14T10:06:36;15.25;;;10.80;;
79460;SDS011;68929;42.666;23.324;2023-06-14T10:09:06;14.13;;;12.65;;
79460;SDS011;68929;42.666;23.324;2023-06-14T10:11:33;9.32;;;8.43;;
79460;SDS011;68929;42.666;23.324;2023-06-14T10:14:00;11.65;;;10.55;;
79460;SDS011;68929;42.666;23.324;2023-06-14T10:16:38;13.00;;;11.82;;
79460;SDS011;68929;42.666;23.324;2023-06-14T10:24:41;11.55;;;10.55;;
79460;SDS011;68929;42.666;23.324;2023-06-14T10:27:07;9.70;;;8.90;;
79460;SDS011;68929;42.666;23.324;2023-06-14T10:30:07;12.18;;;11.07;;
79460;SDS011;68929;42.666;23.324;2023-06-14T10:32:30;12.00;;;10.70;;
79460;SDS011;68929;42.666;23.324;2023-06-14T10:35:01;11.55;;;10.10;;
79460;SDS011;68929;42.666;23.324;2023-06-14T10:37:30;10.32;;;9.15;;
79460;SDS011;68929;42.666;23.324;2023-06-14T10:39:59;9.30;;;8.48;;
79460;SDS011;68929;42.666;23.324;2023-06-14T10:42:29;10.60;;;9.60;;
79460;SDS011;68929;42.666;23.324;2023-06-14T10:44:57;8.65;;;7.85;;
79460;SDS011;68929;42.666;23.324;2023-06-14T10:47:33;10.63;;;9.68;;
79460;SDS011;68929;42.666;23.324;2023-06-14T10:52:37;9.43;;;8.55;;
79460;SDS011;68929;42.666;23.324;2023-06-14T10:55:15;12.05;;;10.85;;
79460;SDS011;68929;42.666;23.324;2023-06-14T10:57:55;11.82;;;10.73;;
79460;SDS011;68929;42.666;23.324;2023-06-14T11:00:29;12.50;;;11.30;;
79460;SDS011;68929;42.666;23.324;2023-06-14T11:06:01;9.90;;;9.00;;
79460;SDS011;68929;42.666;23.324;2023-06-14T11:09:12;11.98;;;10.85;;
79460;SDS011;68929;42.666;23.324;2023-06-14T11:12:04;8.93;;;8.02;;
79460;SDS011;68929;42.666;23.324;2023-06-14T11:14:36;10.25;;;9.25;;
79460;SDS011;68929;42.666;23.324;2023-06-14T11:17:02;9.50;;;8.60;;
79460;SDS011;68929;42.666;23.324;2023-06-14T11:19:27;10.07;;;9.25;;
79460;SDS011;68929;42.666;23.324;2023-06-14T11:21:56;12.20;;;11.00;;
79460;SDS011;68929;42.666;23.324;2023-06-14T11:24:26;10.18;;;9.27;;
79460;SDS011;68929;42.666;23.324;2023-06-14T11:26:51;8.93;;;8.18;;
79460;SDS011;68929;42.666;23.324;2023-06-14T11:29:17;11.07;;;10.13;;
79460;SDS011;68929;42.666;23.324;2023-06-14T11:31:48;12.38;;;9.00;;
79460;SDS011;68929;42.666;23.324;2023-06-14T11:34:14;10.43;;;9.45;;
79460;SDS011;68929;42.666;23.324;2023-06-14T11:36:44;8.32;;;7.63;;
79460;SDS011;68929;42.666;23.324;2023-06-14T11:41:39;11.18;;;9.80;;
79460;SDS011;68929;42.666;23.324;2023-06-14T11:44:06;8.73;;;8.00;;
79460;SDS011;68929;42.666;23.324;2023-06-14T11:46:32;7.20;;;6.50;;
79460;SDS011;68929;42.666;23.324;2023-06-14T11:48:57;7.00;;;6.40;;
79460;SDS011;68929;42.666;23.324;2023-06-14T11:51:23;9.07;;;8.32;;
79460;SDS011;68929;42.666;23.324;2023-06-14T11:53:51;8.68;;;7.78;;
79460;SDS011;68929;42.666;23.324;2023-06-14T11:58:57;7.82;;;6.88;;
79460;SDS011;68929;42.666;23.324;2023-06-14T12:01:23;7.60;;;7.00;;
79460;SDS011;68929;42.666;23.324;2023-06-14T12:03:54;9.30;;;8.50;;
79460;SDS011;68929;42.666;23.324;2023-06-14T12:06:27;10.00;;;7.85;;
79460;SDS011;68929;42.666;23.324;2023-06-14T12:08:55;9.27;;;8.32;;
79460;SDS011;68929;42.666;23.324;2023-06-14T12:11:21;9.38;;;8.52;;
79460;SDS011;68929;42.666;23.324;2023-06-14T12:14:10;8.50;;;7.80;;
79460;SDS011;68929;42.666;23.324;2023-06-14T12:16:39;10.10;;;9.20;;
79460;SDS011;68929;42.666;23.324;2023-06-14T12:19:13;7.43;;;6.13;;
79460;SDS011;68929;42.666;23.324;2023-06-14T12:21:43;10.45;;;8.57;;
79460;SDS011;68929;42.666;23.324;2023-06-14T12:24:23;6.30;;;5.78;;
79460;SDS011;68929;42.666;23.324;2023-06-14T12:26:54;6.63;;;6.03;;
79460;SDS011;68929;42.666;23.324;2023-06-14T12:29:20;6.20;;;5.70;;
79460;SDS011;68929;42.666;23.324;2023-06-14T12:31:47;6.65;;;4.75;;
79460;SDS011;68929;42.666;23.324;2023-06-14T12:34:18;5.55;;;5.07;;
79460;SDS011;68929;42.666;23.324;2023-06-14T12:39:15;6.82;;;6.25;;
79460;SDS011;68929;42.666;23.324;2023-06-14T12:41:41;7.78;;;6.97;;
79460;SDS011;68929;42.666;23.324;2023-06-14T12:44:11;6.60;;;6.07;;
79460;SDS011;68929;42.666;23.324;2023-06-14T12:46:47;7.25;;;6.45;;
79460;SDS011;68929;42.666;23.324;2023-06-14T12:49:12;8.00;;;6.90;;
79460;SDS011;68929;42.666;23.324;2023-06-14T12:51:40;6.50;;;5.72;;
79460;SDS011;68929;42.666;23.324;2023-06-14T12:54:06;7.72;;;6.70;;
79460;SDS011;68929;42.666;23.324;2023-06-14T12:56:31;8.00;;;7.20;;
79460;SDS011;68929;42.666;23.324;2023-06-14T12:58:58;5.60;;;4.97;;
79460;SDS011;68929;42.666;23.324;2023-06-14T13:01:29;7.47;;;6.88;;
79460;SDS011;68929;42.666;23.324;2023-06-14T13:03:58;6.97;;;6.38;;
79460;SDS011;68929;42.666;23.324;2023-06-14T13:06:24;8.77;;;7.50;;
79460;SDS011;68929;42.666;23.324;2023-06-14T13:08:50;7.70;;;7.00;;
79460;SDS011;68929;42.666;23.324;2023-06-14T13:11:28;9.55;;;8.65;;
79460;SDS011;68929;42.666;23.324;2023-06-14T13:13:53;8.38;;;7.55;;
79460;SDS011;68929;42.666;23.324;2023-06-14T13:16:24;7.90;;;7.20;;
79460;SDS011;68929;42.666;23.324;2023-06-14T13:18:55;8.80;;;8.00;;
79460;SDS011;68929;42.666;23.324;2023-06-14T13:21:32;9.75;;;8.77;;
79460;SDS011;68929;42.666;23.324;2023-06-14T13:23:58;8.30;;;7.57;;
79460;SDS011;68929;42.666;23.324;2023-06-14T13:26:23;9.95;;;8.95;;
79460;SDS011;68929;42.666;23.324;2023-06-14T13:28:50;10.18;;;9.27;;
79460;SDS011;68929;42.666;23.324;2023-06-14T13:31:21;10.43;;;9.43;;
79460;SDS011;68929;42.666;23.324;2023-06-14T13:33:55;9.38;;;8.48;;
79460;SDS011;68929;42.666;23.324;2023-06-14T13:36:20;10.05;;;7.07;;
79460;SDS011;68929;42.666;23.324;2023-06-14T13:38:46;8.60;;;7.75;;
79460;SDS011;68929;42.666;23.324;2023-06-14T13:41:11;10.68;;;9.57;;
79460;SDS011;68929;42.666;23.324;2023-06-14T13:43:36;12.30;;;10.50;;
79460;SDS011;68929;42.666;23.324;2023-06-14T13:46:02;8.77;;;7.97;;
79460;SDS011;68929;42.666;23.324;2023-06-14T13:48:27;9.95;;;8.50;;
79460;SDS011;68929;42.666;23.324;2023-06-14T13:51:02;12.25;;;10.95;;
79460;SDS011;68929;42.666;23.324;2023-06-14T13:53:29;11.05;;;9.75;;
79460;SDS011;68929;42.666;23.324;2023-06-14T13:56:04;10.70;;;9.60;;
79460;SDS011;68929;42.666;23.324;2023-06-14T13:58:30;12.10;;;10.60;;
79460;SDS011;68929;42.666;23.324;2023-06-14T14:00:58;13.00;;;11.70;;
79460;SDS011;68929;42.666;23.324;2023-06-14T14:03:28;11.43;;;10.27;;
79460;SDS011;68929;42.666;23.324;2023-06-14T14:05:53;11.55;;;10.32;;
79460;SDS011;68929;42.666;23.324;2023-06-14T14:08:22;8.52;;;7.72;;
79460;SDS011;68929;42.666;23.324;2023-06-14T14:10:52;9.95;;;8.95;;
79460;SDS011;68929;42.666;23.324;2023-06-14T14:13:29;9.43;;;8.52;;
79460;SDS011;68929;42.666;23.324;2023-06-14T14:15:59;10.27;;;9.27;;
79460;SDS011;68929;42.666;23.324;2023-06-14T14:18:29;8.63;;;7.82;;
79460;SDS011;68929;42.666;23.324;2023-06-14T14:20:57;8.52;;;7.72;;
79460;SDS011;68929;42.666;23.324;2023-06-14T14:23:23;8.25;;;7.43;;
79460;SDS011;68929;42.666;23.324;2023-06-14T14:25:52;7.38;;;6.72;;
79460;SDS011;68929;42.666;23.324;2023-06-14T14:28:29;7.85;;;7.15;;
79460;SDS011;68929;42.666;23.324;2023-06-14T14:30:56;7.25;;;6.50;;
79460;SDS011;68929;42.666;23.324;2023-06-14T14:33:21;7.55;;;6.85;;
79460;SDS011;68929;42.666;23.324;2023-06-14T14:35:50;7.00;;;6.32;;
79460;SDS011;68929;42.666;23.324;2023-06-14T14:38:20;7.32;;;6.63;;
79460;SDS011;68929;42.666;23.324;2023-06-14T14:40:50;8.07;;;7.03;;
79460;SDS011;68929;42.666;23.324;2023-06-14T14:43:20;9.85;;;8.82;;
79460;SDS011;68929;42.666;23.324;2023-06-14T14:45:45;11.75;;;9.07;;
79460;SDS011;68929;42.666;23.324;2023-06-14T14:48:10;9.43;;;8.52;;
79460;SDS011;68929;42.666;23.324;2023-06-14T14:50:36;11.38;;;10.20;;
79460;SDS011;68929;42.666;23.324;2023-06-14T14:53:01;11.52;;;10.20;;
79460;SDS011;68929;42.666;23.324;2023-06-14T14:55:27;11.63;;;10.40;;
79460;SDS011;68929;42.666;23.324;2023-06-14T14:57:59;13.35;;;10.73;;